createdAt,value
2023-05-05T00:01:15.870Z,7.83
2023-05-05T00:03:42.520Z,7.90
2023-05-05T00:06:09.064Z,7.40
2023-05-05T00:08:35.454Z,7.90
2023-05-05T00:11:01.794Z,8.90
2023-05-05T00:13:28.110Z,8.87
2023-05-05T00:15:54.517Z,9.90
2023-05-05T00:18:21.418Z,8.90
2023-05-05T00:20:48.012Z,8.60
2023-05-05T00:23:17.173Z,8.43
2023-05-05T00:25:43.600Z,8.80
2023-05-05T00:28:10.257Z,8.60
2023-05-05T00:30:37.300Z,9.50
2023-05-05T00:33:04.182Z,8.60
2023-05-05T00:35:30.812Z,8.73
2023-05-05T00:37:57.236Z,8.83
2023-05-05T00:40:25.009Z,7.77
2023-05-05T00:42:51.479Z,8.20
2023-05-05T00:45:19.209Z,8.47
2023-05-05T00:47:51.333Z,9.00
2023-05-05T00:50:23.759Z,7.80
2023-05-05T00:52:52.744Z,8.60
2023-05-05T00:55:19.236Z,8.90
2023-05-05T00:57:45.914Z,9.20
2023-05-05T01:00:12.981Z,9.63
2023-05-05T01:02:40.362Z,8.63
2023-05-05T01:05:10.759Z,9.00
2023-05-05T01:07:43.713Z,8.57
2023-05-05T01:10:20.364Z,8.50
2023-05-05T01:13:05.250Z,8.60
2023-05-05T01:15:34.693Z,9.47
2023-05-05T01:18:18.082Z,8.80
2023-05-05T01:21:05.297Z,8.67
2023-05-05T01:24:05.344Z,8.30
2023-05-05T01:26:42.844Z,8.50
2023-05-05T01:29:20.195Z,8.77
2023-05-05T01:31:57.040Z,8.00
2023-05-05T01:34:27.514Z,9.40
2023-05-05T01:37:05.552Z,9.10
2023-05-05T01:39:34.825Z,9.40
2023-05-05T01:42:06.670Z,9.90
2023-05-05T01:44:34.860Z,8.90
2023-05-05T01:47:02.467Z,9.43
2023-05-05T01:49:30.113Z,8.90
2023-05-05T01:51:57.621Z,8.53
2023-05-05T01:54:25.739Z,8.50
2023-05-05T01:56:54.149Z,8.73
2023-05-05T01:59:21.611Z,8.70
2023-05-05T02:01:50.361Z,8.33
2023-05-05T02:04:18.465Z,8.60
2023-05-05T02:06:47.505Z,8.00
2023-05-05T02:09:15.111Z,9.63
2023-05-05T02:11:41.684Z,8.93
2023-05-05T02:14:10.831Z,8.40
2023-05-05T02:16:38.607Z,8.63
2023-05-05T02:19:05.494Z,8.33
2023-05-05T02:21:33.636Z,8.13
2023-05-05T02:24:00.981Z,8.10
2023-05-05T02:26:29.983Z,8.70
2023-05-05T02:29:27.493Z,9.00
2023-05-05T02:31:58.978Z,8.43
2023-05-05T02:34:27.179Z,8.10
2023-05-05T02:37:00.168Z,8.50
2023-05-05T02:39:47.346Z,8.70
2023-05-05T02:42:20.706Z,8.93
2023-05-05T02:44:49.220Z,8.00
2023-05-05T02:47:15.750Z,8.40
2023-05-05T02:49:42.860Z,7.77
2023-05-05T02:52:09.265Z,8.80
2023-05-05T02:54:35.889Z,9.07
2023-05-05T02:57:02.923Z,8.90
2023-05-05T02:59:53.011Z,8.83
2023-05-05T03:02:35.316Z,9.07
2023-05-05T03:05:13.220Z,9.70
2023-05-05T03:07:48.793Z,9.50
2023-05-05T03:10:20.051Z,9.10
2023-05-05T03:12:52.359Z,8.80
2023-05-05T03:15:22.207Z,7.47
2023-05-05T03:17:50.382Z,7.40
2023-05-05T03:20:17.339Z,9.17
2023-05-05T03:22:44.408Z,8.40
2023-05-05T03:25:10.795Z,8.83
2023-05-05T03:27:37.157Z,8.37
2023-05-05T03:30:03.812Z,7.43
2023-05-05T03:32:31.081Z,9.00
2023-05-05T03:34:57.474Z,8.20
2023-05-05T03:37:23.918Z,7.60
2023-05-05T03:39:50.252Z,8.40
2023-05-05T03:42:16.925Z,9.80
2023-05-05T03:44:43.685Z,7.60
2023-05-05T03:47:10.092Z,8.00
2023-05-05T03:49:36.527Z,8.83
2023-05-05T03:52:02.852Z,7.83
2023-05-05T03:54:29.261Z,8.40
2023-05-05T03:56:56.207Z,8.97
2023-05-05T03:59:22.568Z,8.33
2023-05-05T04:01:49.886Z,8.33
2023-05-05T04:04:16.550Z,8.83
2023-05-05T04:06:42.923Z,9.67
2023-05-05T04:09:09.271Z,9.87
2023-05-05T04:11:35.584Z,9.20
2023-05-05T04:14:01.936Z,8.67
2023-05-05T04:16:28.376Z,9.70
2023-05-05T04:18:55.283Z,9.40
2023-05-05T04:21:21.672Z,9.37
2023-05-05T04:23:48.184Z,8.93
2023-05-05T04:26:14.501Z,8.60
2023-05-05T04:28:41.889Z,8.77
2023-05-05T04:31:08.251Z,9.30
2023-05-05T04:33:34.600Z,8.30
2023-05-05T04:36:00.960Z,8.70
2023-05-05T04:38:27.424Z,9.47
2023-05-05T04:40:53.839Z,8.97
2023-05-05T04:43:20.806Z,8.70
2023-05-05T04:45:54.399Z,9.40
2023-05-05T04:48:20.925Z,8.67
2023-05-05T04:50:47.313Z,9.60
2023-05-05T04:53:13.661Z,8.97
2023-05-05T04:55:40.011Z,9.33
2023-05-05T04:58:06.427Z,8.63
2023-05-05T05:00:32.869Z,9.43
2023-05-05T05:02:59.285Z,11.40
2023-05-05T05:05:25.667Z,17.50
2023-05-05T05:07:51.989Z,13.93
2023-05-05T05:10:18.459Z,10.37
2023-05-05T05:12:47.660Z,9.00
2023-05-05T05:15:14.098Z,8.70
2023-05-05T05:17:40.511Z,9.90
2023-05-05T05:20:08.939Z,8.97
2023-05-05T05:22:38.142Z,9.90
2023-05-05T05:25:04.836Z,9.73
2023-05-05T05:27:31.181Z,9.77
2023-05-05T05:29:57.528Z,9.90
2023-05-05T05:32:23.851Z,10.07
2023-05-05T05:34:50.187Z,9.20
2023-05-05T05:37:16.536Z,10.17
2023-05-05T05:39:43.700Z,9.70
2023-05-05T05:42:10.188Z,9.70
2023-05-05T05:44:36.533Z,11.00
2023-05-05T05:47:02.873Z,10.60
2023-05-05T05:49:29.204Z,10.47
2023-05-05T05:51:55.552Z,9.73
2023-05-05T05:54:21.906Z,9.97
2023-05-05T05:56:48.240Z,9.10
2023-05-05T05:59:14.557Z,8.97
2023-05-05T06:01:41.158Z,9.57
2023-05-05T06:04:07.720Z,8.47
2023-05-05T06:06:34.258Z,9.63
2023-05-05T06:09:00.894Z,8.93
2023-05-05T06:11:27.251Z,8.33
2023-05-05T06:13:53.577Z,9.93
2023-05-05T06:16:19.925Z,10.13
2023-05-05T06:18:46.844Z,9.80
2023-05-05T06:21:13.415Z,9.70
2023-05-05T06:23:39.815Z,10.23
2023-05-05T06:26:06.146Z,9.93
2023-05-05T06:28:32.549Z,10.53
2023-05-05T06:30:58.890Z,10.33
2023-05-05T06:33:25.226Z,16.43
2023-05-05T06:35:52.222Z,20.53
2023-05-05T06:38:18.559Z,12.00
2023-05-05T06:40:47.441Z,9.57
2023-05-05T06:43:13.760Z,9.10
2023-05-05T06:45:40.776Z,8.50
2023-05-05T06:48:08.427Z,9.23
2023-05-05T06:50:34.824Z,9.33
2023-05-05T06:53:01.487Z,9.03
2023-05-05T06:55:27.870Z,9.20
2023-05-05T06:57:54.207Z,11.60
2023-05-05T07:00:22.016Z,9.33
2023-05-05T07:02:48.393Z,9.90
2023-05-05T07:05:14.794Z,9.60
2023-05-05T07:07:53.536Z,10.87
2023-05-05T07:10:21.360Z,8.80
2023-05-05T07:12:48.215Z,9.60
2023-05-05T07:15:26.834Z,8.03
2023-05-05T07:17:54.940Z,7.20
2023-05-05T07:20:21.328Z,7.00
2023-05-05T07:22:47.647Z,6.80
2023-05-05T07:25:13.967Z,7.63
2023-05-05T07:27:40.653Z,7.10
2023-05-05T07:30:12.298Z,7.40
2023-05-05T07:32:40.562Z,8.47
2023-05-05T07:35:07.172Z,8.20
2023-05-05T07:37:33.579Z,7.93
2023-05-05T07:39:59.913Z,7.20
2023-05-05T07:42:26.240Z,7.30
2023-05-05T07:44:52.848Z,7.13
2023-05-05T07:47:19.172Z,8.23
2023-05-05T07:49:45.672Z,7.10
2023-05-05T07:52:12.170Z,6.77
2023-05-05T07:54:38.523Z,6.20
2023-05-05T07:57:04.925Z,5.70
2023-05-05T07:59:31.340Z,5.07
2023-05-05T08:01:57.648Z,4.53
2023-05-05T08:04:24.046Z,6.10
2023-05-05T08:06:50.428Z,7.83
2023-05-05T08:09:16.762Z,6.70
2023-05-05T08:11:43.068Z,4.50
2023-05-05T08:14:09.452Z,4.20
2023-05-05T08:16:36.200Z,4.80
2023-05-05T08:19:03.006Z,4.53
2023-05-05T08:21:29.401Z,4.10
2023-05-05T08:23:55.732Z,4.00
2023-05-05T08:26:22.720Z,4.07
2023-05-05T08:28:49.137Z,4.13
2023-05-05T08:31:15.865Z,4.23
2023-05-05T08:33:42.226Z,5.00
2023-05-05T08:36:08.875Z,4.57
2023-05-05T08:38:36.206Z,4.13
2023-05-05T08:41:02.556Z,4.00
2023-05-05T08:43:28.873Z,4.27
2023-05-05T08:45:56.573Z,3.70
2023-05-05T08:48:27.562Z,4.27
2023-05-05T08:51:00.852Z,3.30
2023-05-05T08:54:11.574Z,3.50
2023-05-05T08:56:42.483Z,5.23
2023-05-05T08:59:11.776Z,4.30
2023-05-05T09:01:38.249Z,4.20
2023-05-05T09:04:04.927Z,5.57
2023-05-05T09:06:33.593Z,4.23
2023-05-05T09:09:00.868Z,3.97
2023-05-05T09:11:27.959Z,3.30
2023-05-05T09:13:55.422Z,3.47
2023-05-05T09:16:22.517Z,3.60
2023-05-05T09:18:48.865Z,3.50
2023-05-05T09:21:25.884Z,3.83
2023-05-05T09:24:09.241Z,3.93
2023-05-05T09:26:38.343Z,4.70
2023-05-05T09:29:05.466Z,3.50
2023-05-05T09:31:32.656Z,3.77
2023-05-05T09:34:01.003Z,3.13
2023-05-05T09:36:47.908Z,4.07
2023-05-05T09:39:19.224Z,3.60
2023-05-05T09:41:46.697Z,3.10
2023-05-05T09:44:15.973Z,4.13
2023-05-05T09:46:52.684Z,3.70
2023-05-05T09:49:23.366Z,3.80
2023-05-05T09:51:49.793Z,3.50
2023-05-05T09:54:43.160Z,4.13
2023-05-05T09:57:25.452Z,3.60
2023-05-05T09:59:59.711Z,3.63
2023-05-05T10:02:38.399Z,3.87
2023-05-05T10:05:07.511Z,3.40
2023-05-05T10:07:35.368Z,4.53
2023-05-05T10:10:03.822Z,6.13
2023-05-05T10:12:31.624Z,4.23
2023-05-05T10:15:02.409Z,4.00
2023-05-05T10:17:32.696Z,3.60
2023-05-05T10:20:01.035Z,3.90
2023-05-05T10:22:32.712Z,4.30
2023-05-05T10:25:09.304Z,3.40
2023-05-05T10:27:43.582Z,4.10
2023-05-05T10:30:20.075Z,4.13
2023-05-05T10:33:03.576Z,4.57
2023-05-05T10:35:40.025Z,4.00
2023-05-05T10:38:09.721Z,3.70
2023-05-05T10:40:36.107Z,4.00
2023-05-05T10:43:02.532Z,3.73
2023-05-05T10:45:29.121Z,4.33
2023-05-05T10:47:59.040Z,3.90
2023-05-05T10:50:38.418Z,3.80
2023-05-05T10:53:21.894Z,3.93
2023-05-05T10:56:12.115Z,3.60
2023-05-05T10:58:58.195Z,5.07
2023-05-05T11:01:31.913Z,8.10
2023-05-05T11:04:18.161Z,5.63
2023-05-05T11:07:13.415Z,3.97
2023-05-05T11:10:01.698Z,3.70
2023-05-05T11:12:29.206Z,4.40
2023-05-05T11:15:23.378Z,4.23
2023-05-05T11:17:49.992Z,4.00
2023-05-05T11:20:16.784Z,4.33
2023-05-05T11:23:05.346Z,4.20
2023-05-05T11:25:34.811Z,3.20
2023-05-05T11:28:14.338Z,4.17
2023-05-05T11:30:56.407Z,3.53
2023-05-05T11:33:30.776Z,3.70
2023-05-05T11:35:59.142Z,4.17
2023-05-05T11:38:40.403Z,3.80
2023-05-05T11:41:35.564Z,3.70
2023-05-05T11:44:18.479Z,3.53
2023-05-05T11:46:50.545Z,3.63
2023-05-05T11:49:39.364Z,3.57
2023-05-05T11:52:07.848Z,3.60
2023-05-05T11:54:47.444Z,4.47
2023-05-05T11:57:15.107Z,3.70
2023-05-05T12:00:01.097Z,4.00
2023-05-05T12:02:29.408Z,3.33
2023-05-05T12:04:57.030Z,3.27
2023-05-05T12:07:27.016Z,3.20
2023-05-05T12:09:53.712Z,3.50
2023-05-05T12:12:20.751Z,3.80
2023-05-05T12:14:52.568Z,3.97
2023-05-05T12:17:23.255Z,3.20
2023-05-05T12:19:51.947Z,3.53
2023-05-05T12:22:19.777Z,3.00
2023-05-05T12:24:55.045Z,3.60
2023-05-05T12:27:21.750Z,3.17
2023-05-05T12:29:48.175Z,3.40
2023-05-05T12:32:24.692Z,3.87
2023-05-05T12:34:54.217Z,3.17
2023-05-05T12:37:22.129Z,4.30
2023-05-05T12:39:49.553Z,3.60
2023-05-05T12:42:16.935Z,3.53
2023-05-05T12:44:46.677Z,3.23
2023-05-05T12:47:14.160Z,3.40
2023-05-05T12:49:51.180Z,3.83
2023-05-05T12:52:18.304Z,3.43
2023-05-05T12:54:59.052Z,3.77
2023-05-05T12:57:26.039Z,4.30
2023-05-05T12:59:53.614Z,3.23
2023-05-05T13:02:21.097Z,4.13
2023-05-05T13:04:54.399Z,3.80
2023-05-05T13:07:21.888Z,3.10
2023-05-05T13:09:49.828Z,3.43
2023-05-05T13:12:19.683Z,3.07
2023-05-05T13:14:46.645Z,3.30
2023-05-05T13:17:14.007Z,3.80
2023-05-05T13:19:46.201Z,3.87
2023-05-05T13:22:13.476Z,3.33
2023-05-05T13:24:50.952Z,4.00
2023-05-05T13:27:19.330Z,3.80
2023-05-05T13:29:45.944Z,3.80
2023-05-05T13:32:12.344Z,3.47
2023-05-05T13:34:39.089Z,4.03
2023-05-05T13:37:05.918Z,4.00
2023-05-05T13:39:32.270Z,3.70
2023-05-05T13:41:58.583Z,3.70
2023-05-05T13:44:24.937Z,3.97
2023-05-05T13:46:51.334Z,3.77
2023-05-05T13:49:17.941Z,4.40
2023-05-05T13:51:45.067Z,4.30
2023-05-05T13:54:11.397Z,4.03
2023-05-05T13:56:38.051Z,3.47
2023-05-05T13:59:04.424Z,3.60
2023-05-05T14:01:31.044Z,3.40
2023-05-05T14:03:57.985Z,3.97
2023-05-05T14:06:24.824Z,3.97
2023-05-05T14:08:51.585Z,4.10
2023-05-05T14:11:18.168Z,3.87
2023-05-05T14:13:46.332Z,3.40
2023-05-05T14:16:13.161Z,3.57
2023-05-05T14:18:39.533Z,3.23
2023-05-05T14:21:05.894Z,3.47
2023-05-05T14:23:32.501Z,3.37
2023-05-05T14:25:58.828Z,4.40
2023-05-05T14:28:25.236Z,3.70
2023-05-05T14:30:52.002Z,4.13
2023-05-05T14:33:18.342Z,4.37
2023-05-05T14:35:44.654Z,3.27
2023-05-05T14:38:11.023Z,3.60
2023-05-05T14:40:37.373Z,3.73
2023-05-05T14:43:03.744Z,4.80
2023-05-05T14:45:31.088Z,3.63
2023-05-05T14:47:57.417Z,3.60
2023-05-05T14:50:23.804Z,3.90
2023-05-05T14:52:50.319Z,5.20
2023-05-05T14:55:16.818Z,3.80
2023-05-05T14:57:43.217Z,4.17
2023-05-05T15:00:11.153Z,4.93
2023-05-05T15:02:37.686Z,4.70
2023-05-05T15:05:05.069Z,3.97
2023-05-05T15:07:31.481Z,4.47
2023-05-05T15:09:57.831Z,3.23
2023-05-05T15:12:24.232Z,3.53
2023-05-05T15:14:50.608Z,4.10
2023-05-05T15:17:17.020Z,4.10
2023-05-05T15:19:43.401Z,4.20
2023-05-05T15:22:09.780Z,3.63
2023-05-05T15:24:37.081Z,3.30
2023-05-05T15:27:03.619Z,7.20
2023-05-05T15:29:30.006Z,4.87
2023-05-05T15:31:56.380Z,3.83
2023-05-05T15:34:22.711Z,3.90
2023-05-05T15:39:15.412Z,3.17
2023-05-05T15:41:41.757Z,3.70
2023-05-05T15:44:08.533Z,3.50
2023-05-05T15:46:34.922Z,3.20
2023-05-05T15:49:01.364Z,3.20
2023-05-05T15:51:27.705Z,2.90
2023-05-05T15:53:54.097Z,2.90
2023-05-05T15:56:20.429Z,3.00
2023-05-05T15:58:46.738Z,4.40
2023-05-05T16:01:13.077Z,3.20
2023-05-05T16:03:39.456Z,3.10
2023-05-05T16:06:06.177Z,2.60
2023-05-05T16:08:32.556Z,3.20
2023-05-05T16:10:58.888Z,3.23
2023-05-05T16:13:25.221Z,2.93
2023-05-05T16:15:51.537Z,2.90
2023-05-05T16:18:17.945Z,2.20
2023-05-05T16:20:44.290Z,2.90
2023-05-05T16:23:12.033Z,2.53
2023-05-05T16:25:38.361Z,2.70
2023-05-05T16:28:04.793Z,2.23
2023-05-05T16:30:31.119Z,2.53
2023-05-05T16:32:57.487Z,2.47
2023-05-05T16:35:23.869Z,2.70
2023-05-05T16:37:50.205Z,2.43
2023-05-05T16:40:16.523Z,2.70
2023-05-05T16:42:44.425Z,2.37
2023-05-05T16:45:11.540Z,2.47
2023-05-05T16:47:38.163Z,2.70
2023-05-05T16:50:05.225Z,2.20
2023-05-05T16:52:31.541Z,3.20
2023-05-05T16:54:58.043Z,2.50
2023-05-05T16:57:24.441Z,3.10
2023-05-05T16:59:50.887Z,10.57
2023-05-05T17:02:17.240Z,4.00
2023-05-05T17:04:43.613Z,4.03
2023-05-05T17:07:09.952Z,2.50
2023-05-05T17:09:36.270Z,2.37
2023-05-05T17:12:04.220Z,2.67
2023-05-05T17:14:31.050Z,2.80
2023-05-05T17:16:57.854Z,2.50
2023-05-05T17:19:24.304Z,2.80
2023-05-05T17:21:50.713Z,2.83
2023-05-05T17:24:17.035Z,2.80
2023-05-05T17:26:43.418Z,2.57
2023-05-05T17:29:11.544Z,3.33
2023-05-05T17:31:39.205Z,3.17
2023-05-05T17:34:05.651Z,2.97
2023-05-05T17:36:32.058Z,2.90
2023-05-05T17:38:58.437Z,3.10
2023-05-05T17:41:25.558Z,2.57
2023-05-05T17:43:51.968Z,2.77
2023-05-05T17:46:18.391Z,3.10
2023-05-05T17:48:45.111Z,3.57
2023-05-05T17:51:11.525Z,3.10
2023-05-05T17:53:38.396Z,3.17
2023-05-05T17:56:06.645Z,2.40
2023-05-05T17:58:34.982Z,2.70
2023-05-05T18:01:01.645Z,2.93
2023-05-05T18:03:28.258Z,3.17
2023-05-05T18:05:54.770Z,3.90
2023-05-05T18:08:21.128Z,2.80
2023-05-05T18:10:47.556Z,2.47
2023-05-05T18:13:13.943Z,3.07
2023-05-05T18:15:40.372Z,3.20
2023-05-05T18:18:07.033Z,2.70
2023-05-05T18:20:33.422Z,2.50
2023-05-05T18:22:59.757Z,3.27
2023-05-05T18:25:26.138Z,2.83
2023-05-05T18:27:52.502Z,3.50
2023-05-05T18:30:19.140Z,2.80
2023-05-05T18:32:45.524Z,2.90
2023-05-05T18:35:12.594Z,3.43
2023-05-05T18:37:39.394Z,2.73
2023-05-05T18:40:06.959Z,2.57
2023-05-05T18:42:33.339Z,3.00
2023-05-05T18:44:59.710Z,2.60
2023-05-05T18:47:26.289Z,2.80
2023-05-05T18:49:52.697Z,2.93
2023-05-05T18:52:19.057Z,3.27
2023-05-05T18:54:45.452Z,2.43
2023-05-05T18:57:11.776Z,2.63
2023-05-05T18:59:38.090Z,3.10
2023-05-05T19:02:04.470Z,2.63
2023-05-05T19:04:32.128Z,3.03
2023-05-05T19:06:59.872Z,3.20
2023-05-05T19:09:26.350Z,3.23
2023-05-05T19:11:52.669Z,2.97
2023-05-05T19:14:19.070Z,3.97
2023-05-05T19:16:45.440Z,5.90
2023-05-05T19:19:11.812Z,5.33
2023-05-05T19:21:38.490Z,4.60
2023-05-05T19:24:06.567Z,3.20
2023-05-05T19:26:32.891Z,3.10
2023-05-05T19:28:59.457Z,3.00
2023-05-05T19:31:27.741Z,3.07
2023-05-05T19:34:02.219Z,3.47
2023-05-05T19:36:31.495Z,4.17
2023-05-05T19:39:01.557Z,3.80
2023-05-05T19:41:28.828Z,3.40
2023-05-05T19:43:55.287Z,3.37
2023-05-05T19:46:22.989Z,3.20
2023-05-05T19:48:49.373Z,2.90
2023-05-05T19:51:15.696Z,2.93
2023-05-05T19:53:42.706Z,3.27
2023-05-05T19:56:09.739Z,3.40
2023-05-05T19:58:57.335Z,3.13
2023-05-05T20:01:23.869Z,2.93
2023-05-05T20:03:50.951Z,4.37
2023-05-05T20:06:17.561Z,4.00
2023-05-05T20:08:43.882Z,3.10
2023-05-05T20:11:10.305Z,3.90
2023-05-05T20:13:38.101Z,3.67
2023-05-05T20:16:05.163Z,2.90
2023-05-05T20:18:31.973Z,3.40
2023-05-05T20:21:01.060Z,3.13
2023-05-05T20:23:27.868Z,3.50
2023-05-05T20:25:54.988Z,3.57
2023-05-05T20:28:21.433Z,3.80
2023-05-05T20:30:47.789Z,3.27
2023-05-05T20:33:14.125Z,4.07
2023-05-05T20:35:40.497Z,3.63
2023-05-05T20:38:06.916Z,3.53
2023-05-05T20:40:33.615Z,3.17
2023-05-05T20:43:00.076Z,3.97
2023-05-05T20:45:26.435Z,3.43
2023-05-05T20:47:53.102Z,4.00
2023-05-05T20:50:22.442Z,4.70
2023-05-05T20:52:49.348Z,5.93
2023-05-05T20:55:15.738Z,4.30
2023-05-05T20:57:42.098Z,3.90
2023-05-05T21:00:09.198Z,4.17
2023-05-05T21:02:36.330Z,4.10
2023-05-05T21:05:02.921Z,3.60
2023-05-05T21:07:31.122Z,4.07
2023-05-05T21:09:57.489Z,5.03
2023-05-05T21:12:24.051Z,3.60
2023-05-05T21:14:50.433Z,3.77
2023-05-05T21:17:16.786Z,5.07
2023-05-05T21:19:43.102Z,3.73
2023-05-05T21:22:09.444Z,3.63
2023-05-05T21:24:35.801Z,3.70
2023-05-05T21:27:02.117Z,4.00
2023-05-05T21:29:28.451Z,4.07
2023-05-05T21:31:54.887Z,3.73
2023-05-05T21:34:21.264Z,3.50
2023-05-05T21:36:47.606Z,4.27
2023-05-05T21:39:13.944Z,4.00
2023-05-05T21:41:40.263Z,3.80
2023-05-05T21:44:06.580Z,4.23
2023-05-05T21:46:32.984Z,4.27
2023-05-05T21:48:59.441Z,4.60
2023-05-05T21:51:26.430Z,4.53
2023-05-05T21:53:52.805Z,4.73
2023-05-05T21:56:19.168Z,6.10
2023-05-05T21:58:45.765Z,4.53
2023-05-05T22:01:12.166Z,5.50
2023-05-05T22:03:38.688Z,4.90
2023-05-05T22:06:05.413Z,5.10
2023-05-05T22:08:31.778Z,4.53
2023-05-05T22:10:58.109Z,4.13
2023-05-05T22:13:24.502Z,4.63
2023-05-05T22:15:50.890Z,3.90
2023-05-05T22:18:17.288Z,3.80
2023-05-05T22:20:43.937Z,4.00
2023-05-05T22:23:10.306Z,3.67
2023-05-05T22:25:36.640Z,4.00
2023-05-05T22:28:03.061Z,4.30
2023-05-05T22:30:29.469Z,3.10
2023-05-05T22:32:55.926Z,3.70
2023-05-05T22:35:22.300Z,4.57
2023-05-05T22:37:48.881Z,4.30
2023-05-05T22:40:15.255Z,4.30
2023-05-05T22:42:41.601Z,3.90
2023-05-05T22:45:08.839Z,4.13
2023-05-05T22:47:35.728Z,4.10
2023-05-05T22:50:02.136Z,3.47
2023-05-05T22:52:28.927Z,4.70
2023-05-05T22:54:56.104Z,4.40
2023-05-05T22:57:22.510Z,4.50
2023-05-05T22:59:48.962Z,4.87
2023-05-05T23:02:15.293Z,4.40
2023-05-05T23:04:45.774Z,4.67
2023-05-05T23:07:12.375Z,4.97
2023-05-05T23:09:38.759Z,5.23
2023-05-05T23:12:05.126Z,4.70
2023-05-05T23:14:31.435Z,5.10
2023-05-05T23:16:58.102Z,4.67
2023-05-05T23:19:24.543Z,5.07
2023-05-05T23:21:53.546Z,4.53
2023-05-05T23:24:21.272Z,5.47
2023-05-05T23:26:47.602Z,4.47
2023-05-05T23:29:13.950Z,4.30
2023-05-05T23:31:40.349Z,4.90
2023-05-05T23:34:06.673Z,4.80
2023-05-05T23:36:33.126Z,4.93
2023-05-05T23:38:59.472Z,5.60
2023-05-05T23:41:25.930Z,5.50
2023-05-05T23:43:52.284Z,5.00
2023-05-05T23:46:18.645Z,4.87
2023-05-05T23:48:45.173Z,4.60
2023-05-05T23:51:11.741Z,4.60
2023-05-05T23:53:38.053Z,4.60
2023-05-05T23:56:04.779Z,5.00
2023-05-05T23:58:31.150Z,5.33
